Time;durP1;ratioP1;P1;durP2;ratioP2;P2;SDS_P1;SDS_P2;PMS_P1;PMS_P2;Temp;Humidity;BMP_temperature;BMP_pressure;BME280_temperature;BME280_humidity;BME280_pressure;Samples;Min_cycle;Max_cycle;Signal;HPM_P1;HPM_P2
2022/09/08 00:00:14;;;;;;;57.88;8.00;;;;;;;16.49;100.00;97918.25;2627534;28;20052;-80
2022/09/08 00:01:49;;;;;;;47.40;6.88;;;;;;;16.44;100.00;97917.66;2626534;28;20048;-80
2022/09/08 00:03:13;;;;;;;43.53;6.80;;;;;;;16.33;100.00;97914.81;2626898;28;20612;-80
2022/09/08 00:04:28;;;;;;;27.20;6.07;;;;;;;16.32;100.00;97919.25;2627091;28;20172;-80
2022/09/08 00:05:50;;;;;;;13.75;5.95;;;;;;;16.39;100.00;97919.75;2627183;28;20063;-80
2022/09/08 00:07:06;;;;;;;22.45;6.15;;;;;;;16.54;100.00;97917.13;2627334;28;20516;-81
2022/09/08 00:08:24;;;;;;;15.75;6.40;;;;;;;16.57;100.00;97914.28;2627139;28;20539;-80
2022/09/08 00:09:39;;;;;;;23.98;6.00;;;;;;;16.41;100.00;97919.63;2626938;28;20081;-79
2022/09/08 00:10:57;;;;;;;18.73;6.65;;;;;;;16.35;100.00;97912.97;2627358;28;20480;-80
2022/09/08 00:12:15;;;;;;;27.63;6.72;;;;;;;16.37;100.00;97909.25;2626888;28;20095;-80
2022/09/08 00:13:32;;;;;;;15.02;6.85;;;;;;;16.38;100.00;97908.31;2627244;28;20063;-80
2022/09/08 00:14:47;;;;;;;16.13;6.38;;;;;;;16.31;100.00;97906.13;2627025;28;20517;-79
2022/09/08 00:16:06;;;;;;;15.63;6.97;;;;;;;16.19;100.00;97898.00;2627557;28;20048;-81
2022/09/08 00:17:23;;;;;;;22.17;7.35;;;;;;;16.12;100.00;97907.25;2627237;28;20044;-81
2022/09/08 00:18:40;;;;;;;40.67;7.78;;;;;;;16.19;100.00;97905.09;2627070;28;20139;-81
2022/09/08 00:19:56;;;;;;;34.33;7.70;;;;;;;16.24;100.00;97909.16;2627404;28;20490;-80
2022/09/08 00:21:11;;;;;;;86.28;9.70;;;;;;;16.27;100.00;97905.47;2627546;28;20044;-80
2022/09/08 00:22:27;;;;;;;30.20;6.35;;;;;;;16.32;100.00;97905.19;2627394;28;20569;-80
2022/09/08 00:23:43;;;;;;;87.55;8.05;;;;;;;16.34;100.00;97903.31;2627044;28;20051;-83
2022/09/08 00:24:58;;;;;;;48.00;6.97;;;;;;;16.26;100.00;97909.03;2627202;28;20045;-84
2022/09/08 00:26:15;;;;;;;48.75;7.65;;;;;;;16.12;100.00;97904.59;2627187;28;20051;-80
2022/09/08 00:27:31;;;;;;;42.03;6.70;;;;;;;16.05;100.00;97898.84;2626490;28;20048;-81
2022/09/08 00:28:48;;;;;;;60.20;7.40;;;;;;;16.05;100.00;97897.97;2626755;28;20058;-84
2022/09/08 00:30:04;;;;;;;45.88;7.30;;;;;;;16.02;100.00;97901.66;2626746;28;20493;-80
2022/09/08 00:31:20;;;;;;;43.60;6.88;;;;;;;16.10;100.00;97901.22;2627243;28;20193;-80
2022/09/08 00:32:35;;;;;;;26.48;5.88;;;;;;;16.16;100.00;97905.28;2627061;28;20044;-80
2022/09/08 00:33:51;;;;;;;72.28;7.72;;;;;;;16.24;100.00;97898.59;2627184;28;20048;-80
2022/09/08 00:35:14;;;;;;;139.18;9.02;;;;;;;16.33;100.00;97891.91;2627091;28;20082;-80
2022/09/08 00:36:31;;;;;;;54.85;6.30;;;;;;;16.22;100.00;97894.34;2627069;28;20482;-82
2022/09/08 00:37:47;;;;;;;99.43;8.07;;;;;;;16.10;100.00;97890.66;2626904;28;20043;-82
2022/09/08 00:39:03;;;;;;;72.50;6.70;;;;;;;16.05;100.00;97892.69;2626669;28;20100;-80
2022/09/08 00:40:21;;;;;;;57.17;7.55;;;;;;;16.05;100.00;97896.19;2626870;28;20044;-79
2022/09/08 00:41:36;;;;;;;78.00;7.45;;;;;;;16.11;100.00;97892.34;2626892;28;20105;-81
2022/09/08 00:43:04;;;;;;;46.15;6.65;;;;;;;16.02;100.00;97887.59;2627014;28;20085;-80
2022/09/08 00:44:44;;;;;;;205.18;11.23;;;;;;;16.14;100.00;97892.16;2626726;28;20044;-79
2022/09/08 00:46:23;;;;;;;138.55;10.20;;;;;;;16.23;100.00;97888.97;2626572;28;20063;-79
2022/09/08 00:47:49;;;;;;;150.75;10.32;;;;;;;16.19;100.00;97886.59;2626496;28;20055;-79
2022/09/08 00:49:13;;;;;;;196.95;11.23;;;;;;;16.24;100.00;97880.09;2626188;28;21101;-81
2022/09/08 00:50:29;;;;;;;76.05;7.40;;;;;;;16.25;100.00;97883.56;2626711;28;20048;-80
2022/09/08 00:51:48;;;;;;;189.25;11.50;;;;;;;16.16;100.00;97882.34;2626816;28;20048;-79
2022/09/08 00:53:09;;;;;;;83.95;7.75;;;;;;;16.08;100.00;97877.53;2626480;28;20126;-80
2022/09/08 00:54:26;;;;;;;17.17;5.70;;;;;;;16.12;100.00;97878.19;2626659;28;20052;-81
2022/09/08 00:55:43;;;;;;;42.70;6.47;;;;;;;16.13;100.00;97876.38;2626751;28;20079;-82
2022/09/08 00:56:58;;;;;;;51.38;6.68;;;;;;;16.15;100.00;97880.66;2626905;28;20044;-79
2022/09/08 00:58:14;;;;;;;64.57;6.63;;;;;;;16.18;100.00;97879.63;2626376;28;20048;-79
2022/09/08 00:59:33;;;;;;;63.95;7.32;;;;;;;16.22;100.00;97881.13;2626735;28;20425;-80
2022/09/08 01:00:49;;;;;;;62.55;6.97;;;;;;;16.26;100.00;97879.16;2626512;28;20066;-83
2022/09/08 01:02:25;;;;;;;107.35;8.65;;;;;;;16.24;100.00;97876.59;2626745;28;20051;-81
2022/09/08 01:03:42;;;;;;;61.28;6.03;;;;;;;16.16;100.00;97874.41;2626597;28;20912;-79
2022/09/08 01:05:05;;;;;;;42.08;5.75;;;;;;;16.06;100.00;97873.25;2627018;28;20059;-86
2022/09/08 01:14:00;;;;;;;117.22;8.40;;;;;;;16.13;100.00;97864.03;2626616;28;20475;-79
2022/09/08 01:15:19;;;;;;;91.32;8.48;;;;;;;16.13;100.00;97863.19;2626820;28;20083;-79
2022/09/08 01:16:40;;;;;;;108.97;6.90;;;;;;;16.14;100.00;97854.34;2626427;28;20418;-80
2022/09/08 01:17:56;;;;;;;126.82;8.88;;;;;;;16.15;100.00;97848.97;2626618;28;20453;-79
2022/09/08 01:19:28;;;;;;;36.47;6.63;;;;;;;16.18;100.00;97848.75;2626787;28;20048;-80
2022/09/08 01:20:53;;;;;;;;;;;;;;;16.16;100.00;97849.81;2627086;28;20445;-80
2022/09/08 01:22:51;;;;;;;20.20;5.10;;;;;;;15.95;100.00;97843.09;2626850;28;20596;-81
2022/09/08 01:24:24;;;;;;;18.00;5.50;;;;;;;15.78;100.00;97843.19;2626368;28;20705;-82
2022/09/08 01:26:27;;;;;;;58.00;7.45;;;;;;;15.85;100.00;97841.03;2626936;28;20483;-80
2022/09/08 01:27:48;;;;;;;61.67;8.23;;;;;;;15.79;100.00;97837.00;2589257;28;20089;-82
2022/09/08 01:29:06;;;;;;;29.65;6.28;;;;;;;15.64;100.00;97833.47;2590495;28;20115;-80
2022/09/08 01:30:21;;;;;;;15.98;6.00;;;;;;;15.65;100.00;97840.44;2623814;28;20067;-80
2022/09/08 01:31:40;;;;;;;64.38;7.25;;;;;;;15.64;100.00;97842.22;2626298;28;20402;-80
2022/09/08 01:32:56;;;;;;;44.00;6.45;;;;;;;15.60;100.00;97851.25;2626354;28;20368;-79
2022/09/08 01:34:12;;;;;;;40.55;5.97;;;;;;;15.59;100.00;97851.38;2626782;28;20478;-79
2022/09/08 01:35:34;;;;;;;19.98;5.80;;;;;;;15.60;100.00;97855.69;2626743;28;20106;-80
2022/09/08 01:36:49;;;;;;;13.25;5.53;;;;;;;15.62;100.00;97854.66;2626841;28;20044;-80
2022/09/08 01:38:07;;;;;;;24.40;5.32;;;;;;;15.51;100.00;97850.00;2626664;28;20680;-80
2022/09/08 01:39:22;;;;;;;55.53;6.72;;;;;;;15.63;100.00;97848.44;2626502;28;20089;-81
2022/09/08 01:40:38;;;;;;;69.25;6.85;;;;;;;15.61;100.00;97847.69;2628320;28;20072;-82
2022/09/08 01:41:54;;;;;;;79.93;6.57;;;;;;;15.78;100.00;97846.69;2628415;28;20048;-79
2022/09/08 01:43:09;;;;;;;46.42;5.57;;;;;;;15.75;100.00;97852.16;2628729;28;20056;-81
2022/09/08 01:44:25;;;;;;;30.27;5.22;;;;;;;15.67;100.00;97846.47;2628703;28;20064;-80
2022/09/08 01:45:41;;;;;;;27.45;5.50;;;;;;;15.79;100.00;97852.84;2629032;28;20079;-80
2022/09/08 01:46:56;;;;;;;16.13;5.10;;;;;;;15.86;100.00;97851.53;2628519;28;20040;-80
2022/09/08 01:48:12;;;;;;;16.88;4.80;;;;;;;15.89;100.00;97853.13;2628703;28;20048;-80
2022/09/08 01:49:28;;;;;;;6.25;4.63;;;;;;;15.90;100.00;97860.97;2628280;28;20067;-84
2022/09/08 01:50:43;;;;;;;5.90;4.38;;;;;;;15.85;100.00;97865.66;2628402;28;20059;-81
2022/09/08 01:51:59;;;;;;;16.08;4.97;;;;;;;15.74;100.00;97863.66;2628656;28;20044;-80
2022/09/08 01:53:14;;;;;;;14.73;4.75;;;;;;;15.76;100.00;97872.34;2628734;28;20056;-80
2022/09/08 01:54:30;;;;;;;27.17;4.93;;;;;;;15.74;100.00;97876.84;2628073;28;20411;-80
2022/09/08 01:55:46;;;;;;;31.05;5.65;;;;;;;15.78;100.00;97873.09;2628664;28;20097;-81
2022/09/08 01:57:01;;;;;;;63.63;6.75;;;;;;;15.94;100.00;97875.72;2628339;28;20075;-80
2022/09/08 01:58:17;;;;;;;20.73;5.72;;;;;;;16.01;100.00;97875.34;2628620;28;20047;-80
2022/09/08 01:59:33;;;;;;;18.90;5.47;;;;;;;15.87;100.00;97874.34;2627486;28;20051;-80
2022/09/08 02:00:48;;;;;;;47.88;6.32;;;;;;;15.88;100.00;97872.56;2628069;28;20520;-80
2022/09/08 02:02:04;;;;;;;46.70;6.85;;;;;;;15.88;100.00;97869.91;2628559;28;20135;-80
2022/09/08 02:03:20;;;;;;;70.82;7.03;;;;;;;15.86;100.00;97867.34;2628542;28;20043;-80
2022/09/08 02:04:35;;;;;;;40.22;5.93;;;;;;;15.85;100.00;97867.44;2627516;28;20055;-80
2022/09/08 02:05:51;;;;;;;33.67;5.85;;;;;;;15.83;100.00;97862.25;2627877;28;20080;-84
2022/09/08 02:07:06;;;;;;;53.05;6.47;;;;;;;15.88;100.00;97870.75;2628597;28;20441;-80
2022/09/08 02:08:22;;;;;;;42.63;6.25;;;;;;;15.91;100.00;97872.41;2628486;28;20079;-79
2022/09/08 02:09:38;;;;;;;40.90;6.40;;;;;;;15.83;100.00;97870.19;2628493;28;20536;-80
2022/09/08 02:10:59;;;;;;;15.75;5.35;;;;;;;15.81;100.00;97867.63;2628633;28;20139;-79
2022/09/08 02:12:14;;;;;;;25.73;6.22;;;;;;;15.77;100.00;97862.59;2628364;28;20100;-80
2022/09/08 02:13:30;;;;;;;16.88;5.70;;;;;;;15.71;100.00;97862.97;2628655;28;20121;-79
2022/09/08 02:14:46;;;;;;;22.65;5.63;;;;;;;15.66;100.00;97858.84;2628372;28;20399;-79
2022/09/08 02:16:06;;;;;;;15.18;5.75;;;;;;;15.75;100.00;97859.22;2628615;28;20563;-79
2022/09/08 02:17:22;;;;;;;10.50;6.00;;;;;;;15.82;100.00;97863.22;2628468;28;20074;-79
2022/09/08 02:18:39;;;;;;;22.83;5.60;;;;;;;15.68;100.00;97858.72;2628236;28;20051;-79
2022/09/08 02:19:54;;;;;;;20.10;5.78;;;;;;;15.73;100.00;97861.97;2628381;28;20187;-78
2022/09/08 02:21:15;;;;;;;22.80;5.85;;;;;;;15.79;100.00;97871.31;2628485;28;20596;-80
2022/09/08 02:22:32;;;;;;;7.25;5.55;;;;;;;15.83;100.00;97870.19;2628318;28;20051;-79
2022/09/08 02:23:49;;;;;;;32.63;6.38;;;;;;;15.91;100.00;97869.75;2627992;28;20484;-83
2022/09/08 02:25:05;;;;;;;83.70;8.50;;;;;;;15.93;100.00;97870.53;2628309;28;20063;-79
2022/09/08 02:26:26;;;;;;;72.88;6.65;;;;;;;15.86;100.00;97864.72;2628353;28;20142;-79
2022/09/08 02:27:41;;;;;;;56.60;5.47;;;;;;;15.76;100.00;97860.91;2628211;28;20395;-79
2022/09/08 02:28:58;;;;;;;83.88;6.50;;;;;;;15.76;100.00;97853.84;2628256;28;20549;-79
2022/09/08 02:30:13;;;;;;;72.47;6.57;;;;;;;15.78;100.00;97859.03;2628181;28;20047;-79
2022/09/08 02:31:29;;;;;;;23.52;5.30;;;;;;;15.75;100.00;97860.06;2628328;28;20775;-78
2022/09/08 02:32:44;;;;;;;5.20;4.70;;;;;;;15.76;100.00;97861.78;2627802;28;20260;-80
2022/09/08 02:34:00;;;;;;;7.20;4.50;;;;;;;15.81;100.00;97858.88;2628347;28;20060;-80
2022/09/08 02:35:17;;;;;;;12.00;4.97;;;;;;;15.85;100.00;97860.38;2628129;28;20048;-80
2022/09/08 02:36:33;;;;;;;10.27;5.78;;;;;;;15.70;100.00;97854.19;2628208;28;20051;-79
2022/09/08 02:37:48;;;;;;;11.73;5.72;;;;;;;15.56;100.00;97847.09;2628045;28;20048;-80
2022/09/08 02:39:04;;;;;;;16.38;5.95;;;;;;;15.51;100.00;97838.63;2628163;28;20048;-79
2022/09/08 02:40:20;;;;;;;28.02;5.88;;;;;;;15.60;100.00;97831.94;2628171;28;20392;-79
2022/09/08 02:41:36;;;;;;;27.20;6.88;;;;;;;15.63;100.00;97835.25;2628113;28;20108;-80
2022/09/08 02:42:51;;;;;;;14.38;6.50;;;;;;;15.68;100.00;97835.84;2628187;28;20040;-80
2022/09/08 02:44:09;;;;;;;43.63;7.38;;;;;;;15.72;100.00;97831.22;2628374;28;20474;-79
2022/09/08 02:45:25;;;;;;;22.50;6.65;;;;;;;15.83;100.00;97835.88;2628243;28;20059;-80
2022/09/08 02:46:41;;;;;;;19.63;6.20;;;;;;;15.67;100.00;97830.63;2628100;28;20052;-79
2022/09/08 02:47:57;;;;;;;14.10;6.00;;;;;;;15.58;100.00;97829.41;2627500;28;20658;-80
2022/09/08 02:49:13;;;;;;;16.20;6.00;;;;;;;15.45;100.00;97824.00;2627882;28;20048;-78
2022/09/08 02:50:29;;;;;;;9.98;5.68;;;;;;;15.27;100.00;97827.66;2627518;28;20048;-79
2022/09/08 02:51:45;;;;;;;12.98;5.88;;;;;;;15.16;100.00;97820.38;2627931;28;20074;-79
2022/09/08 02:53:00;;;;;;;9.88;5.40;;;;;;;15.37;100.00;97824.44;2627742;28;20048;-78
2022/09/08 02:54:16;;;;;;;13.88;6.07;;;;;;;15.49;100.00;97822.88;2628182;28;20781;-79
2022/09/08 02:55:36;;;;;;;9.13;5.30;;;;;;;15.50;100.00;97816.66;2628168;28;20453;-79
2022/09/08 02:56:51;;;;;;;6.57;4.90;;;;;;;15.36;100.00;97817.44;2627951;28;20473;-80
2022/09/08 02:58:08;;;;;;;9.38;4.57;;;;;;;15.41;100.00;97816.34;2628042;28;20079;-80
2022/09/08 02:59:24;;;;;;;6.75;5.07;;;;;;;15.58;100.00;97810.09;2628172;28;20136;-79
2022/09/08 03:00:40;;;;;;;5.22;4.60;;;;;;;15.34;100.00;97808.75;2627476;28;20402;-80
2022/09/08 03:01:58;;;;;;;6.43;5.00;;;;;;;15.02;100.00;97802.72;2627804;28;20054;-82
2022/09/08 03:03:13;;;;;;;5.95;4.88;;;;;;;15.20;100.00;97801.66;2627899;28;20822;-82
2022/09/08 03:04:29;;;;;;;6.53;4.38;;;;;;;15.35;100.00;97801.72;2628004;28;20060;-81
2022/09/08 03:05:45;;;;;;;5.75;4.53;;;;;;;15.35;100.00;97804.34;2628419;28;20067;-81
2022/09/08 03:07:00;;;;;;;6.63;4.70;;;;;;;15.48;100.00;97802.69;2627840;28;20138;-79
2022/09/08 03:08:17;;;;;;;8.85;4.63;;;;;;;15.37;100.00;97799.84;2627531;28;20051;-80
2022/09/08 03:09:32;;;;;;;6.70;4.70;;;;;;;15.17;100.00;97795.72;2627123;28;20066;-83
2022/09/08 03:10:48;;;;;;;9.82;4.25;;;;;;;15.22;100.00;97788.38;2627056;28;20040;-80
2022/09/08 03:12:04;;;;;;;5.63;4.53;;;;;;;15.15;100.00;97787.03;2627332;28;20689;-81
2022/09/08 03:13:19;;;;;;;5.90;4.53;;;;;;;15.13;100.00;97783.66;2627430;28;20343;-80
2022/09/08 03:14:36;;;;;;;6.53;4.07;;;;;;;15.15;100.00;97787.03;2627628;28;20051;-80
2022/09/08 03:15:52;;;;;;;8.68;4.00;;;;;;;15.19;100.00;97793.81;2627487;28;20047;-80
2022/09/08 03:17:08;;;;;;;7.65;3.92;;;;;;;15.22;100.00;97793.66;2627427;28;20044;-80
2022/09/08 03:18:24;;;;;;;6.75;4.50;;;;;;;15.24;100.00;97791.78;2627054;28;20055;-80
2022/09/08 03:19:40;;;;;;;5.65;4.03;;;;;;;15.23;100.00;97798.00;2627822;28;20060;-80
2022/09/08 03:21:08;;;;;;;12.98;5.15;;;;;;;15.29;100.00;97795.00;2627381;28;20047;-80
2022/09/08 03:22:23;;;;;;;7.43;4.40;;;;;;;15.35;100.00;97799.91;2627990;28;20055;-80
2022/09/08 03:23:39;;;;;;;38.15;6.13;;;;;;;15.39;100.00;97795.31;2627783;28;20051;-80
2022/09/08 03:24:56;;;;;;;5.45;4.80;;;;;;;15.33;100.00;97796.53;2627692;28;20056;-81
2022/09/08 03:26:14;;;;;;;9.10;4.60;;;;;;;15.33;100.00;97795.69;2627701;28;20445;-81
2022/09/08 03:27:29;;;;;;;18.70;4.65;;;;;;;15.35;100.00;97791.16;2627670;28;20078;-80
2022/09/08 03:28:45;;;;;;;6.90;4.88;;;;;;;15.41;100.00;97782.88;2627665;28;20431;-80
2022/09/08 03:30:03;;;;;;;8.70;5.43;;;;;;;15.57;100.00;97793.41;2627418;28;20551;-82
2022/09/08 03:31:21;;;;;;;66.57;8.05;;;;;;;15.57;100.00;97790.75;2627672;28;20087;-80
2022/09/08 03:32:39;;;;;;;19.38;6.40;;;;;;;15.57;100.00;97784.63;2627252;28;20046;-80
2022/09/08 03:33:55;;;;;;;24.90;5.90;;;;;;;15.54;100.00;97789.13;2627569;28;20111;-81
2022/09/08 03:35:14;;;;;;;9.80;5.10;;;;;;;15.60;100.00;97782.66;2627653;28;20414;-81
2022/09/08 03:36:29;;;;;;;7.60;5.13;;;;;;;15.45;100.00;97783.56;2627435;28;20123;-80
2022/09/08 03:37:45;;;;;;;8.25;5.03;;;;;;;15.35;100.00;97781.44;2627398;28;20430;-81
2022/09/08 03:39:01;;;;;;;7.60;5.22;;;;;;;15.41;100.00;97776.78;2627613;28;20048;-81
2022/09/08 03:40:18;;;;;;;10.25;5.80;;;;;;;15.23;100.00;97776.91;2627482;28;20052;-81
2022/09/08 03:41:33;;;;;;;6.63;4.97;;;;;;;15.13;100.00;97770.47;2627081;28;20140;-81
2022/09/08 03:42:49;;;;;;;7.93;5.45;;;;;;;15.23;100.00;97774.28;2625542;28;20044;-83
2022/09/08 03:44:04;;;;;;;5.47;4.63;;;;;;;15.40;100.00;97770.63;2627699;28;20441;-81
2022/09/08 03:45:21;;;;;;;7.68;4.50;;;;;;;15.49;100.00;97769.25;2627467;28;20048;-80
2022/09/08 03:46:36;;;;;;;8.73;4.90;;;;;;;15.57;100.00;97766.16;2627330;28;20550;-81
2022/09/08 03:47:52;;;;;;;5.32;4.82;;;;;;;15.65;100.00;97769.19;2627259;28;20162;-81
2022/09/08 03:49:07;;;;;;;6.25;4.22;;;;;;;15.66;100.00;97766.47;2627137;28;20051;-80
2022/09/08 03:50:24;;;;;;;4.15;3.72;;;;;;;15.65;100.00;97770.06;2627614;28;20490;-81
2022/09/08 03:51:40;;;;;;;5.60;4.03;;;;;;;15.68;100.00;97758.44;2627399;28;20055;-80
2022/09/08 03:52:56;;;;;;;6.07;4.25;;;;;;;15.70;100.00;97755.72;2627344;28;20040;-81
2022/09/08 03:55:46;;;;;;;49.33;6.10;;;;;;;15.57;100.00;97745.91;2627419;28;20881;-80
2022/09/08 03:57:03;;;;;;;54.15;5.85;;;;;;;15.58;100.00;97739.69;2627316;28;20067;-80
2022/09/08 03:58:19;;;;;;;18.40;5.22;;;;;;;15.52;100.00;97740.06;2627290;28;20044;-81
2022/09/08 03:59:35;;;;;;;33.47;6.53;;;;;;;15.61;100.00;97734.22;2626766;28;20780;-80
2022/09/08 04:00:50;;;;;;;32.90;5.60;;;;;;;15.59;100.00;97727.34;2626316;28;20051;-81
2022/09/08 04:02:06;;;;;;;46.92;6.07;;;;;;;15.61;100.00;97726.31;2625562;28;20044;-81
2022/09/08 04:03:21;;;;;;;47.00;5.70;;;;;;;15.63;100.00;97729.69;2622262;28;20486;-80
2022/09/08 04:04:37;;;;;;;8.57;4.68;;;;;;;15.66;100.00;97729.53;2623853;28;20044;-81
2022/09/08 04:05:53;;;;;;;23.50;5.00;;;;;;;15.64;100.00;97728.75;2627414;28;20094;-81
2022/09/08 04:07:09;;;;;;;73.00;6.30;;;;;;;15.69;100.00;97725.84;2627306;28;20055;-81
2022/09/08 04:08:25;;;;;;;42.00;4.97;;;;;;;15.68;100.00;97716.22;2626963;28;20565;-83
2022/09/08 04:09:42;;;;;;;23.67;4.55;;;;;;;15.58;100.00;97723.84;2627428;28;20079;-81
2022/09/08 04:10:58;;;;;;;13.73;3.90;;;;;;;15.70;100.00;97721.41;2627486;28;20048;-80
2022/09/08 04:12:15;;;;;;;72.35;5.90;;;;;;;15.72;100.00;97722.16;2627251;28;20055;-83
2022/09/08 04:13:31;;;;;;;92.13;6.68;;;;;;;15.65;100.00;97727.84;2627232;28;20048;-81
2022/09/08 04:14:50;;;;;;;131.90;8.70;;;;;;;15.71;100.00;97731.03;2627210;28;20387;-81
2022/09/08 04:16:06;;;;;;;90.15;6.55;;;;;;;15.57;100.00;97734.50;2626984;28;20110;-80
2022/09/08 04:17:22;;;;;;;81.85;6.25;;;;;;;15.36;100.00;97727.75;2626845;28;20048;-82
2022/09/08 04:18:37;;;;;;;63.45;6.30;;;;;;;15.58;100.00;97723.03;2626830;28;21027;-81
2022/09/08 04:19:53;;;;;;;38.85;5.20;;;;;;;15.61;100.00;97721.03;2627113;28;20055;-81
2022/09/08 04:21:09;;;;;;;42.35;5.60;;;;;;;15.67;100.00;97725.09;2625836;28;20052;-81
2022/09/08 04:22:25;;;;;;;16.17;5.30;;;;;;;15.54;100.00;97723.19;2626733;28;20066;-81
2022/09/08 04:23:40;;;;;;;71.45;6.68;;;;;;;15.39;100.00;97724.97;2626849;28;20042;-80
2022/09/08 04:24:56;;;;;;;103.70;7.50;;;;;;;15.46;100.00;97725.44;2626873;28;20050;-81
2022/09/08 04:26:13;;;;;;;93.22;7.05;;;;;;;15.45;100.00;97730.81;2627188;28;20054;-82
2022/09/08 04:27:29;;;;;;;139.82;9.20;;;;;;;15.53;100.00;97736.47;2626606;28;20040;-81
2022/09/08 04:28:44;;;;;;;97.63;6.97;;;;;;;15.38;100.00;97741.72;2626924;28;20158;-81
2022/09/08 04:30:00;;;;;;;134.95;8.38;;;;;;;15.34;100.00;97744.63;2626884;28;20086;-82
2022/09/08 04:31:16;;;;;;;115.30;8.70;;;;;;;15.45;100.00;97741.34;2626647;28;20088;-81
2022/09/08 04:32:34;;;;;;;219.13;11.80;;;;;;;15.58;100.00;97737.03;2626551;28;20542;-81
2022/09/08 04:33:50;;;;;;;152.95;10.73;;;;;;;15.59;100.00;97737.91;2626461;28;20046;-80
2022/09/08 04:35:07;;;;;;;226.30;11.35;;;;;;;15.65;100.00;97743.66;2626544;28;20054;-81
2022/09/08 04:36:23;;;;;;;204.50;13.02;;;;;;;15.67;100.00;97743.56;2626837;28;20040;-80
2022/09/08 04:37:38;;;;;;;164.35;10.07;;;;;;;15.47;100.00;97747.38;2626652;28;20055;-81
2022/09/08 04:38:55;;;;;;;95.40;7.88;;;;;;;15.49;100.00;97748.13;2626790;28;20043;-81
2022/09/08 04:40:10;;;;;;;99.97;7.80;;;;;;;15.45;100.00;97752.78;2626307;28;20201;-82
2022/09/08 04:41:28;;;;;;;53.25;5.80;;;;;;;15.61;100.00;97759.78;2626623;28;20048;-81
2022/09/08 04:42:43;;;;;;;6.90;5.15;;;;;;;15.73;100.00;97753.75;2625773;28;20510;-80
2022/09/08 04:44:02;;;;;;;30.75;6.35;;;;;;;15.70;100.00;97753.91;2626302;28;20362;-82
2022/09/08 04:45:19;;;;;;;25.95;6.18;;;;;;;15.62;100.00;97748.28;2626976;28;20494;-83
2022/09/08 04:46:36;;;;;;;9.23;5.18;;;;;;;15.36;100.00;97742.75;2626997;28;20640;-79
2022/09/08 04:47:52;;;;;;;21.55;5.85;;;;;;;15.35;100.00;97741.88;2625789;28;20486;-85
2022/09/08 04:49:07;;;;;;;49.60;6.80;;;;;;;15.46;100.00;97740.41;2626676;28;20079;-78
2022/09/08 04:50:23;;;;;;;9.40;5.80;;;;;;;15.59;100.00;97740.53;2627372;28;20079;-80
2022/09/08 04:51:39;;;;;;;11.60;5.30;;;;;;;15.70;100.00;97734.63;2626333;28;20082;-80
2022/09/08 04:52:55;;;;;;;8.27;5.30;;;;;;;15.62;100.00;97735.91;2626186;28;20047;-86
2022/09/08 04:54:10;;;;;;;11.77;4.93;;;;;;;15.58;100.00;97730.94;2626162;28;20075;-84
2022/09/08 04:55:26;;;;;;;7.70;4.53;;;;;;;15.51;100.00;97730.47;2626423;28;20124;-79
2022/09/08 04:56:42;;;;;;;10.68;4.50;;;;;;;15.52;100.00;97726.88;2626543;28;20147;-86
2022/09/08 04:57:57;;;;;;;8.40;4.45;;;;;;;15.49;100.00;97724.41;2626576;28;20043;-80
2022/09/08 04:59:13;;;;;;;5.10;4.28;;;;;;;15.61;100.00;97725.47;2626433;28;20548;-80
2022/09/08 05:00:28;;;;;;;12.07;5.57;;;;;;;15.50;100.00;97728.72;2626563;28;20044;-79
2022/09/08 05:01:44;;;;;;;6.28;4.40;;;;;;;15.60;100.00;97721.13;2625479;28;20056;-80
2022/09/08 05:03:00;;;;;;;5.05;4.32;;;;;;;15.47;100.00;97723.66;2625082;28;20048;-80
2022/09/08 05:04:15;;;;;;;11.98;4.88;;;;;;;15.62;100.00;97728.00;2626187;28;20763;-79
2022/09/08 05:05:31;;;;;;;6.18;4.32;;;;;;;15.63;100.00;97728.84;2626694;28;20052;-79
2022/09/08 05:06:46;;;;;;;5.80;4.45;;;;;;;15.65;100.00;97725.19;2626168;28;20095;-80
2022/09/08 05:08:03;;;;;;;6.80;4.53;;;;;;;15.77;100.00;97731.50;2626330;28;20486;-80
2022/09/08 05:09:18;;;;;;;5.32;4.60;;;;;;;15.67;100.00;97725.09;2625715;28;20071;-80
2022/09/08 05:10:34;;;;;;;5.97;4.20;;;;;;;15.56;100.00;97722.25;2625743;28;20414;-80
2022/09/08 05:11:50;;;;;;;5.93;4.43;;;;;;;15.73;100.00;97729.16;2626577;28;20648;-79
2022/09/08 05:13:05;;;;;;;5.30;4.78;;;;;;;15.86;100.00;97729.25;2626513;28;20051;-80
2022/09/08 05:14:21;;;;;;;5.75;4.60;;;;;;;15.90;100.00;97730.81;2627786;28;20142;-80
2022/09/08 05:15:36;;;;;;;5.60;4.30;;;;;;;15.95;100.00;97731.34;2629143;28;20495;-83
2022/09/08 05:16:52;;;;;;;5.07;4.15;;;;;;;15.97;100.00;97732.09;2628602;28;20048;-80
2022/09/08 05:18:08;;;;;;;4.85;3.88;;;;;;;15.92;100.00;97724.50;2628098;28;20820;-80
2022/09/08 05:19:23;;;;;;;7.32;4.50;;;;;;;15.82;100.00;97718.88;2628603;28;20048;-83
2022/09/08 05:20:39;;;;;;;5.63;4.43;;;;;;;15.84;100.00;97718.78;2628916;28;20108;-81
2022/09/08 05:21:54;;;;;;;4.78;4.32;;;;;;;15.91;100.00;97714.84;2628553;28;20056;-80
2022/09/08 05:23:10;;;;;;;7.10;4.55;;;;;;;15.97;100.00;97710.16;2628874;28;20794;-80
2022/09/08 05:24:25;;;;;;;5.80;4.30;;;;;;;16.03;100.00;97707.13;2628676;28;20143;-79
2022/09/08 05:25:41;;;;;;;4.95;4.43;;;;;;;16.03;100.00;97700.06;2628993;28;20486;-80
2022/09/08 05:26:57;;;;;;;7.75;5.00;;;;;;;16.13;100.00;97707.38;2629092;28;20048;-79
2022/09/08 05:28:13;;;;;;;6.50;5.25;;;;;;;16.11;100.00;97702.22;2628791;28;20054;-79
2022/09/08 05:29:28;;;;;;;5.43;4.45;;;;;;;16.24;100.00;97711.06;2628865;28;20055;-80
2022/09/08 05:30:44;;;;;;;5.47;4.50;;;;;;;16.34;100.00;97705.19;2628682;28;20942;-80
2022/09/08 05:32:00;;;;;;;5.80;4.45;;;;;;;16.35;100.00;97704.25;2628280;28;20044;-81
2022/09/08 05:33:15;;;;;;;7.03;4.30;;;;;;;16.42;100.00;97710.00;2628918;28;20055;-81
2022/09/08 05:34:31;;;;;;;5.40;4.03;;;;;;;16.45;100.00;97709.81;2628651;28;20056;-80
2022/09/08 05:35:47;;;;;;;4.70;4.05;;;;;;;16.46;100.00;97709.69;2628752;28;20052;-80
2022/09/08 05:37:03;;;;;;;7.30;4.15;;;;;;;16.54;100.00;97711.00;2628574;28;20047;-80
2022/09/08 05:38:19;;;;;;;4.90;3.97;;;;;;;16.48;100.00;97705.19;2629062;28;20052;-79
2022/09/08 05:39:35;;;;;;;8.70;4.15;;;;;;;16.45;100.00;97710.63;2627694;28;20789;-80
2022/09/08 05:40:50;;;;;;;6.35;4.43;;;;;;;16.45;100.00;97710.63;2628746;28;20052;-83
2022/09/08 05:42:06;;;;;;;6.15;4.40;;;;;;;16.41;100.00;97708.28;2628812;28;20421;-80
2022/09/08 05:43:22;;;;;;;6.93;5.00;;;;;;;16.35;100.00;97705.09;2628758;28;20044;-80
2022/09/08 05:44:37;;;;;;;7.30;4.68;;;;;;;16.36;100.00;97698.88;2628036;28;20056;-80
2022/09/08 05:45:53;;;;;;;7.40;4.80;;;;;;;16.32;100.00;97702.66;2628233;28;20132;-80
2022/09/08 05:47:09;;;;;;;8.63;5.38;;;;;;;16.35;100.00;97705.09;2628370;28;20054;-80
2022/09/08 05:48:24;;;;;;;7.60;4.63;;;;;;;16.38;100.00;97701.41;2628179;28;20093;-80
2022/09/08 05:49:40;;;;;;;7.10;5.15;;;;;;;16.49;100.00;97696.31;2628173;28;20506;-84
2022/09/08 05:50:56;;;;;;;6.45;5.18;;;;;;;16.37;100.00;97697.91;2628595;28;20083;-81
2022/09/08 05:52:12;;;;;;;6.15;5.47;;;;;;;16.46;100.00;97696.47;2628781;28;20052;-80
2022/09/08 05:53:28;;;;;;;9.38;5.47;;;;;;;16.42;100.00;97694.97;2628532;28;20055;-81
2022/09/08 05:54:44;;;;;;;6.93;5.10;;;;;;;16.48;100.00;97699.03;2628472;28;20070;-80
2022/09/08 05:56:02;;;;;;;9.15;5.40;;;;;;;16.54;100.00;97690.69;2627705;28;20812;-82
2022/09/08 05:57:18;;;;;;;6.05;5.10;;;;;;;16.55;100.00;97695.03;2628182;28;20048;-80
2022/09/08 05:58:34;;;;;;;6.32;5.72;;;;;;;16.46;100.00;97695.66;2628059;28;20106;-80
2022/09/08 05:59:49;;;;;;;6.78;5.40;;;;;;;16.58;100.00;97707.22;2628681;28;20117;-80
2022/09/08 06:01:13;;;;;;;6.82;5.35;;;;;;;16.35;100.00;97699.81;2628303;28;20063;-79
2022/09/08 06:02:28;;;;;;;8.05;5.57;;;;;;;16.50;100.00;97705.06;2625810;28;20048;-80
2022/09/08 06:03:44;;;;;;;7.03;5.35;;;;;;;16.37;100.00;97707.66;2628559;28;20044;-80
2022/09/08 06:05:00;;;;;;;7.57;5.72;;;;;;;16.45;100.00;97712.44;2628373;28;20862;-82